Time;durP1;ratioP1;P1;durP2;ratioP2;P2;SDS_P1;SDS_P2;PMS_P1;PMS_P2;Temp;Humidity;BMP_temperature;BMP_pressure;BME280_temperature;BME280_humidity;BME280_pressure;Samples;Min_cycle;Max_cycle;Signal;HPM_P1;HPM_P2
2021/10/31 00:01:43;;;;;;;15.18;12.10;;;;;;;9.49;76.05;100660.56;5002048;28;20023;-61
2021/10/31 00:04:29;;;;;;;15.82;12.30;;;;;;;9.47;75.86;100658.00;5001175;28;20084;-61
2021/10/31 00:07:15;;;;;;;16.50;12.80;;;;;;;9.54;75.83;100665.75;5014413;28;20026;-61
2021/10/31 00:10:02;;;;;;;15.65;12.40;;;;;;;9.46;76.33;100668.34;5000735;28;20097;-59
2021/10/31 00:12:49;;;;;;;15.73;12.65;;;;;;;9.43;75.99;100669.19;5000280;28;20022;-59
2021/10/31 00:15:35;;;;;;;16.48;12.80;;;;;;;9.44;75.20;100668.34;4999764;28;20078;-60
2021/10/31 00:18:21;;;;;;;15.07;12.88;;;;;;;9.44;75.13;100668.34;4992268;28;20038;-60
2021/10/31 00:21:07;;;;;;;15.95;12.15;;;;;;;9.45;75.93;100664.91;4999671;28;20068;-60
2021/10/31 00:23:54;;;;;;;14.63;11.98;;;;;;;9.46;75.62;100666.63;5000439;28;20057;-60
2021/10/31 00:26:40;;;;;;;15.10;11.57;;;;;;;9.44;75.24;100670.09;5001224;28;20323;-60
2021/10/31 00:29:26;;;;;;;13.30;11.57;;;;;;;9.49;74.65;100678.69;5000799;28;20045;-61
2021/10/31 00:32:12;;;;;;;15.05;11.90;;;;;;;9.42;75.10;100667.50;5000812;28;20200;-60
2021/10/31 00:34:58;;;;;;;15.85;11.18;;;;;;;9.50;74.96;100668.34;5000435;28;20023;-60
2021/10/31 00:37:44;;;;;;;15.52;11.95;;;;;;;9.50;74.14;100663.19;4993331;28;20058;-61
2021/10/31 00:40:32;;;;;;;16.15;11.70;;;;;;;9.41;74.15;100659.75;4996895;28;20026;-61
2021/10/31 00:43:18;;;;;;;13.90;11.68;;;;;;;9.40;74.10;100661.44;5000402;28;20415;-61
2021/10/31 00:46:04;;;;;;;13.93;11.68;;;;;;;9.37;74.52;100653.69;4999932;28;20041;-61
2021/10/31 00:48:50;;;;;;;16.08;12.63;;;;;;;9.32;74.06;100643.38;4999903;28;20068;-60
2021/10/31 00:51:36;;;;;;;14.75;11.15;;;;;;;9.36;74.20;100641.63;4993218;28;20022;-61
2021/10/31 00:54:22;;;;;;;19.50;12.65;;;;;;;9.38;74.64;100644.22;5000412;28;20102;-60
2021/10/31 00:57:10;;;;;;;16.17;12.77;;;;;;;8.95;74.39;100589.13;4999319;28;20038;-61
2021/10/31 00:59:57;;;;;;;14.02;11.20;;;;;;;8.95;73.66;100575.31;5002289;28;20338;-60
2021/10/31 01:02:44;;;;;;;15.27;11.82;;;;;;;9.32;74.64;100638.19;5005191;28;20132;-61
2021/10/31 01:05:34;;;;;;;14.32;11.35;;;;;;;8.94;73.89;100579.63;5003899;28;20335;-60
2021/10/31 01:08:57;;;;;;;16.00;12.15;;;;;;;9.28;74.29;100633.03;4986141;28;20039;-60
2021/10/31 01:12:14;;;;;;;17.65;11.48;;;;;;;9.20;74.25;100635.63;4991400;28;20324;-60
2021/10/31 01:15:26;;;;;;;14.20;11.60;;;;;;;8.88;74.14;100573.59;5004846;28;20027;-60
2021/10/31 01:18:40;;;;;;;16.00;12.20;;;;;;;9.24;73.34;100627.00;4996566;28;20356;-60
2021/10/31 01:21:54;;;;;;;16.55;11.43;;;;;;;9.18;73.27;100620.97;5001743;28;20042;-60
2021/10/31 01:25:01;;;;;;;13.07;10.95;;;;;;;9.18;73.90;100623.56;4986100;28;20350;-60
2021/10/31 01:28:13;;;;;;;16.73;12.02;;;;;;;9.09;73.20;100614.97;5003980;28;20037;-59
2021/10/31 01:31:39;;;;;;;15.80;11.35;;;;;;;9.10;73.69;100608.06;5002483;28;20077;-60
2021/10/31 01:35:00;;;;;;;15.55;11.93;;;;;;;9.04;74.32;100621.00;4997000;28;20045;-60
2021/10/31 01:37:51;;;;;;;14.23;11.55;;;;;;;9.09;73.26;100604.63;5002537;28;20073;-60
2021/10/31 01:40:45;;;;;;;14.82;11.82;;;;;;;9.04;72.97;100606.34;5003245;28;20180;-59
2021/10/31 01:43:50;;;;;;;12.70;10.57;;;;;;;9.05;72.89;100597.72;5003729;28;20085;-60
2021/10/31 01:46:39;;;;;;;14.55;11.68;;;;;;;9.05;73.52;100597.72;4990130;28;20137;-60
2021/10/31 01:50:13;;;;;;;13.73;11.48;;;;;;;8.98;72.77;100596.03;5002664;28;20223;-60
2021/10/31 01:53:25;;;;;;;14.38;11.57;;;;;;;8.96;72.87;100597.72;5004124;28;20034;-59
2021/10/31 01:56:16;;;;;;;15.38;11.30;;;;;;;8.86;73.37;100575.34;5002339;28;20069;-59
2021/10/31 01:59:09;;;;;;;12.40;10.70;;;;;;;8.57;73.12;100527.13;5004355;28;20088;-59
2021/10/31 02:01:57;;;;;;;14.45;11.13;;;;;;;8.95;73.30;100581.38;5004043;28;20081;-59
2021/10/31 02:04:46;;;;;;;14.07;11.45;;;;;;;8.79;73.20;100564.13;5002316;28;20034;-60
2021/10/31 02:07:36;;;;;;;12.90;11.25;;;;;;;8.83;73.30;100565.00;5003292;28;20034;-60
2021/10/31 02:10:24;;;;;;;16.77;11.45;;;;;;;8.83;72.39;100558.13;5001820;28;20034;-60
2021/10/31 02:13:11;;;;;;;12.43;9.88;;;;;;;8.78;72.05;100552.97;5002783;28;20030;-60
2021/10/31 02:15:58;;;;;;;12.57;10.25;;;;;;;8.89;71.73;100565.00;4999356;28;20135;-60
2021/10/31 02:18:48;;;;;;;13.00;10.52;;;;;;;8.87;72.10;100557.25;4986260;28;20331;-60
2021/10/31 02:21:36;;;;;;;13.77;10.57;;;;;;;8.57;72.14;100511.66;5001603;28;20101;-60
2021/10/31 02:24:22;;;;;;;14.00;11.00;;;;;;;8.92;72.43;100570.16;5002554;28;20122;-60
2021/10/31 02:27:17;;;;;;;14.35;11.18;;;;;;;8.84;71.36;100566.75;4988910;28;21022;-61
2021/10/31 02:30:04;;;;;;;14.52;11.05;;;;;;;8.88;72.13;100571.03;5002261;28;20246;-60
2021/10/31 02:32:51;;;;;;;14.45;10.70;;;;;;;8.79;72.12;100575.34;5002234;28;20022;-60
2021/10/31 02:35:39;;;;;;;13.93;11.30;;;;;;;8.77;71.63;100563.28;4991405;28;20034;-61
2021/10/31 02:38:25;;;;;;;13.13;10.35;;;;;;;8.70;71.77;100570.16;5002343;28;20034;-60
2021/10/31 02:41:11;;;;;;;12.40;10.75;;;;;;;8.66;72.02;100568.44;5003676;28;20030;-60
2021/10/31 02:43:58;;;;;;;12.13;10.43;;;;;;;8.71;71.26;100577.06;5001849;28;20086;-61
2021/10/31 02:46:45;;;;;;;13.57;10.77;;;;;;;8.68;70.81;100571.03;5002182;28;20093;-61
2021/10/31 02:49:31;;;;;;;13.80;11.18;;;;;;;8.72;71.60;100570.16;5001959;28;20025;-60
2021/10/31 02:52:30;;;;;;;16.23;10.60;;;;;;;8.33;71.12;100517.63;5001623;28;20583;-61
2021/10/31 02:55:28;;;;;;;15.52;10.88;;;;;;;8.29;70.27;100515.03;5003105;28;20210;-60
2021/10/31 02:58:33;;;;;;;13.05;10.25;;;;;;;8.69;70.77;100567.59;5002353;28;20189;-61
2021/10/31 03:01:19;;;;;;;12.75;9.95;;;;;;;8.72;71.73;100565.88;4999983;28;20022;-60
2021/10/31 03:04:05;;;;;;;14.25;10.90;;;;;;;8.71;70.27;100564.16;5002732;28;20093;-60
2021/10/31 03:06:51;;;;;;;15.98;10.50;;;;;;;8.68;70.72;100556.41;5001771;28;20203;-61
2021/10/31 03:09:37;;;;;;;11.95;9.55;;;;;;;8.69;70.68;100552.94;5001051;28;20030;-60
2021/10/31 03:12:23;;;;;;;12.73;10.18;;;;;;;8.66;70.77;100557.25;4983847;28;20041;-59
2021/10/31 03:15:09;;;;;;;11.77;9.70;;;;;;;8.70;70.69;100562.41;5003404;28;20026;-61
2021/10/31 03:17:55;;;;;;;14.98;9.32;;;;;;;8.63;71.16;100553.78;5001699;28;20050;-60
2021/10/31 03:20:42;;;;;;;12.40;9.63;;;;;;;8.59;70.57;100558.97;5000729;28;20381;-60
2021/10/31 03:23:28;;;;;;;12.25;10.25;;;;;;;8.67;70.90;100562.41;5003135;28;20054;-60
2021/10/31 03:26:14;;;;;;;11.50;9.65;;;;;;;8.62;71.13;100554.69;5001803;28;20027;-60
2021/10/31 03:29:00;;;;;;;14.00;10.00;;;;;;;8.63;70.14;100558.97;5000961;28;20272;-61
2021/10/31 03:31:46;;;;;;;14.93;10.70;;;;;;;8.63;70.80;100552.94;4984698;28;20274;-61
2021/10/31 03:34:32;;;;;;;14.18;9.95;;;;;;;8.64;70.19;100552.94;5000356;28;20034;-61
2021/10/31 03:37:18;;;;;;;14.40;11.23;;;;;;;8.57;70.89;100543.47;5001405;28;20033;-59
2021/10/31 03:40:04;;;;;;;16.98;11.23;;;;;;;8.59;71.33;100553.81;5002004;28;20029;-60
2021/10/31 03:42:51;;;;;;;14.52;11.25;;;;;;;8.45;70.68;100554.66;5000768;28;20038;-60
2021/10/31 03:45:39;;;;;;;15.45;10.75;;;;;;;8.52;70.45;100549.50;5000853;28;20027;-60
2021/10/31 03:48:25;;;;;;;17.33;11.07;;;;;;;8.46;71.33;100535.75;5000854;28;20046;-59
2021/10/31 03:51:10;;;;;;;15.15;11.32;;;;;;;8.44;71.69;100536.56;5000353;28;20339;-60
2021/10/31 03:53:56;;;;;;;15.63;11.48;;;;;;;8.37;70.95;100540.00;5001282;28;20026;-60
2021/10/31 03:56:42;;;;;;;15.68;11.65;;;;;;;8.41;71.98;100539.13;4990884;28;20022;-60
2021/10/31 03:59:28;;;;;;;17.75;11.50;;;;;;;8.39;71.14;100539.09;5000578;28;20097;-60
2021/10/31 04:02:14;;;;;;;19.05;12.00;;;;;;;8.41;71.20;100537.41;4999939;28;20105;-60
2021/10/31 04:05:00;;;;;;;15.93;11.68;;;;;;;8.38;71.20;100524.50;5000312;28;20030;-60
2021/10/31 04:07:47;;;;;;;14.70;11.32;;;;;;;8.28;71.53;100512.47;4993737;28;20101;-60
2021/10/31 04:10:33;;;;;;;15.07;11.25;;;;;;;8.26;71.27;100520.16;4992584;28;20034;-60
2021/10/31 04:13:19;;;;;;;15.13;11.20;;;;;;;8.34;72.15;100524.47;5000575;28;20461;-60
2021/10/31 04:16:05;;;;;;;14.50;11.05;;;;;;;8.32;71.07;100518.47;4994488;28;20093;-60
2021/10/31 04:18:51;;;;;;;14.48;11.18;;;;;;;8.34;71.47;100514.16;4994985;28;20090;-60
2021/10/31 04:21:37;;;;;;;15.15;11.07;;;;;;;8.36;71.38;100517.63;4999870;28;20084;-60
2021/10/31 04:24:23;;;;;;;12.30;10.07;;;;;;;8.37;70.66;100517.63;5000960;28;20038;-60
2021/10/31 04:27:09;;;;;;;15.32;10.45;;;;;;;8.35;71.33;100524.50;5000726;28;20449;-60
2021/10/31 04:29:55;;;;;;;14.98;10.38;;;;;;;8.40;70.99;100516.75;5001324;28;20032;-60
2021/10/31 04:32:42;;;;;;;15.82;11.27;;;;;;;8.38;71.02;100526.22;4999575;28;20106;-59
2021/10/31 04:35:27;;;;;;;16.85;11.05;;;;;;;8.36;71.33;100523.63;5000282;28;20105;-59
2021/10/31 04:38:20;;;;;;;17.10;12.05;;;;;;;8.37;70.76;100525.34;5000518;28;20037;-59
2021/10/31 04:41:07;;;;;;;;;;;;;;;8.34;70.33;100530.53;5000530;28;20036;-60
2021/10/31 04:43:53;;;;;;;17.48;11.02;;;;;;;8.21;71.81;100521.91;5000094;28;19909;-60
2021/10/31 04:46:39;;;;;;;16.45;10.70;;;;;;;8.27;70.53;100526.22;5000416;28;20022;-60
2021/10/31 04:49:25;;;;;;;15.23;10.48;;;;;;;8.26;71.48;100520.16;5000658;28;20045;-60
2021/10/31 04:52:11;;;;;;;16.77;10.75;;;;;;;8.24;70.96;100513.31;5000773;28;20026;-60
2021/10/31 04:54:57;;;;;;;15.02;10.85;;;;;;;8.27;71.48;100524.47;5000430;28;20109;-60
2021/10/31 04:57:43;;;;;;;13.80;11.18;;;;;;;8.22;71.06;100530.50;5000380;28;20268;-60
2021/10/31 05:00:29;;;;;;;15.35;10.43;;;;;;;8.23;70.77;100527.91;4999610;28;20374;-60
2021/10/31 05:03:15;;;;;;;18.58;11.65;;;;;;;8.23;71.02;100514.16;4998697;28;20034;-60
2021/10/31 05:06:01;;;;;;;13.45;10.82;;;;;;;8.27;70.10;100521.91;5000023;28;20037;-60
2021/10/31 05:08:47;;;;;;;16.45;10.77;;;;;;;8.25;70.06;100522.75;4999604;28;20033;-61
2021/10/31 05:11:33;;;;;;;14.90;11.38;;;;;;;8.29;69.82;100521.91;5000965;28;20701;-60
2021/10/31 05:14:19;;;;;;;14.43;10.32;;;;;;;8.26;69.45;100527.06;4984177;28;20157;-61
2021/10/31 05:17:05;;;;;;;17.77;10.88;;;;;;;8.27;70.82;100528.78;4989434;28;20321;-60
2021/10/31 05:19:51;;;;;;;15.45;10.40;;;;;;;8.32;69.59;100521.03;4988816;28;20038;-60
2021/10/31 05:22:38;;;;;;;15.48;10.70;;;;;;;8.32;70.79;100527.06;4985277;28;20034;-60
2021/10/31 05:25:24;;;;;;;13.85;10.80;;;;;;;8.04;69.70;100516.69;4999986;28;20377;-60
2021/10/31 05:28:10;;;;;;;15.05;10.50;;;;;;;8.18;69.92;100513.28;4999402;28;20031;-60
2021/10/31 05:30:56;;;;;;;14.88;10.40;;;;;;;8.27;70.26;100521.03;4999775;28;20094;-60
2021/10/31 05:33:43;;;;;;;15.38;11.65;;;;;;;8.25;70.31;100512.44;4999533;28;20045;-60
2021/10/31 05:36:29;;;;;;;16.25;12.35;;;;;;;8.25;69.98;100509.84;4999062;28;20246;-60
2021/10/31 05:39:15;;;;;;;14.82;11.55;;;;;;;8.30;69.50;100521.91;4999263;28;20026;-60
2021/10/31 05:42:01;;;;;;;16.27;10.90;;;;;;;8.28;69.82;100507.28;4999349;28;20033;-60
2021/10/31 05:44:47;;;;;;;17.05;11.93;;;;;;;8.32;69.50;100521.91;5001335;28;20026;-60
2021/10/31 05:47:36;;;;;;;15.80;11.30;;;;;;;7.86;70.79;100463.34;5003765;28;20037;-59
2021/10/31 05:50:22;;;;;;;18.67;11.15;;;;;;;8.12;69.85;100488.31;5003121;28;20041;-60
2021/10/31 05:53:09;;;;;;;20.38;12.15;;;;;;;8.16;70.72;100504.69;5002459;28;20335;-60
2021/10/31 05:55:55;;;;;;;17.75;12.27;;;;;;;8.23;70.89;100504.69;5003493;28;20027;-61
2021/10/31 05:58:41;;;;;;;20.20;12.88;;;;;;;8.36;69.51;100502.97;5002995;28;20030;-60
2021/10/31 06:01:27;;;;;;;17.67;12.00;;;;;;;8.39;69.36;100508.13;5003225;28;20049;-62
2021/10/31 06:04:13;;;;;;;15.52;11.60;;;;;;;8.42;70.54;100508.16;5003844;28;20102;-60
2021/10/31 06:06:59;;;;;;;18.95;12.15;;;;;;;8.36;70.39;100495.25;5001926;28;20096;-61
2021/10/31 06:09:45;;;;;;;17.85;12.00;;;;;;;8.43;69.88;100515.03;5004183;28;20030;-61
2021/10/31 06:12:31;;;;;;;18.40;12.38;;;;;;;8.41;70.24;100511.59;5002245;28;20026;-61
2021/10/31 06:15:21;;;;;;;20.42;11.55;;;;;;;8.08;69.68;100455.63;5003247;28;20034;-60
2021/10/31 06:18:07;;;;;;;18.30;11.98;;;;;;;8.52;69.56;100516.78;5000960;28;20211;-62
2021/10/31 06:20:53;;;;;;;19.90;12.00;;;;;;;8.56;68.96;100521.09;5002899;28;20057;-62
2021/10/31 06:23:39;;;;;;;20.25;12.10;;;;;;;8.55;68.49;100510.78;5003752;28;20053;-61
2021/10/31 06:26:25;;;;;;;18.40;12.70;;;;;;;8.56;69.62;100509.91;5002548;28;20037;-60
2021/10/31 06:29:13;;;;;;;17.27;12.30;;;;;;;8.64;69.39;100508.19;5003762;28;20030;-60
2021/10/31 06:31:59;;;;;;;18.85;12.32;;;;;;;8.56;68.56;100513.34;5001605;28;20042;-61
2021/10/31 06:34:45;;;;;;;19.00;12.80;;;;;;;8.69;68.31;100511.63;5002759;28;20033;-60
2021/10/31 06:37:31;;;;;;;18.75;12.65;;;;;;;8.61;68.85;100508.22;5002378;28;20030;-59
2021/10/31 06:40:18;;;;;;;19.27;12.75;;;;;;;8.70;68.43;100508.19;5003095;28;20038;-61
2021/10/31 06:43:04;;;;;;;18.80;12.88;;;;;;;8.75;67.86;100510.75;5001681;28;20036;-61
2021/10/31 06:45:53;;;;;;;19.42;12.13;;;;;;;8.79;67.87;100510.78;4997851;28;20097;-62
2021/10/31 06:48:39;;;;;;;17.27;11.55;;;;;;;8.84;67.50;100502.16;5001840;28;20054;-62
2021/10/31 06:51:28;;;;;;;18.02;12.15;;;;;;;8.85;67.36;100496.13;4999340;28;20120;-63
2021/10/31 06:54:15;;;;;;;13.80;11.15;;;;;;;9.19;66.41;100501.22;4987250;28;20049;-61
2021/10/31 06:57:01;;;;;;;21.05;12.38;;;;;;;9.26;66.02;100493.47;4998700;28;20026;-61
2021/10/31 06:59:47;;;;;;;17.30;11.25;;;;;;;10.01;64.13;100501.75;4987330;28;20031;-61
2021/10/31 07:02:33;;;;;;;18.40;11.38;;;;;;;11.08;60.71;100506.97;5000097;28;22223;-61
2021/10/31 07:05:19;;;;;;;19.10;11.90;;;;;;;11.85;58.62;100497.44;4998891;28;20042;-59
2021/10/31 07:08:05;;;;;;;15.18;10.27;;;;;;;12.49;56.06;100498.25;4999589;28;20026;-61
2021/10/31 07:10:51;;;;;;;16.67;11.35;;;;;;;12.71;54.75;100490.09;4999587;28;20114;-60
2021/10/31 07:13:38;;;;;;;14.52;10.48;;;;;;;13.00;54.11;100505.19;5000264;28;20211;-61
2021/10/31 07:16:24;;;;;;;15.43;11.55;;;;;;;13.43;54.32;100495.72;4994522;28;20157;-61
2021/10/31 07:19:11;;;;;;;15.98;11.23;;;;;;;13.72;54.20;100494.25;4999960;28;20104;-63
2021/10/31 07:21:57;;;;;;;18.25;10.65;;;;;;;14.07;51.25;100497.84;5000063;28;20026;-62
2021/10/31 07:24:43;;;;;;;16.75;12.30;;;;;;;14.21;50.52;100490.56;5000925;28;20110;-59
2021/10/31 07:27:30;;;;;;;13.52;10.77;;;;;;;14.47;49.96;100495.13;4999701;28;20037;-63
2021/10/31 07:30:16;;;;;;;16.15;10.68;;;;;;;14.17;50.27;100496.75;4995744;28;20073;-59
2021/10/31 07:33:02;;;;;;;17.15;11.52;;;;;;;14.33;49.54;100490.25;4997165;28;20037;-60
2021/10/31 07:35:48;;;;;;;18.65;11.77;;;;;;;14.22;50.59;100500.06;4998655;28;20525;-60
2021/10/31 07:38:38;;;;;;;19.63;11.75;;;;;;;13.87;50.39;100493.94;4996709;28;20030;-59
2021/10/31 07:41:25;;;;;;;16.23;11.30;;;;;;;13.90;51.11;100493.84;4995886;28;20049;-59
2021/10/31 07:44:11;;;;;;;16.17;10.63;;;;;;;14.02;49.75;100491.88;4993720;28;20260;-59
2021/10/31 07:46:57;;;;;;;15.93;11.20;;;;;;;13.90;50.06;100499.06;4998346;28;20038;-58
2021/10/31 07:49:43;;;;;;;15.95;12.05;;;;;;;14.25;49.63;100484.41;5000445;28;20033;-59
2021/10/31 07:52:29;;;;;;;16.52;10.70;;;;;;;14.11;49.11;100491.69;4996619;28;20038;-62
2021/10/31 07:55:18;;;;;;;14.98;10.68;;;;;;;14.62;49.34;100480.03;4999878;28;20061;-59
2021/10/31 07:58:06;;;;;;;16.08;11.43;;;;;;;14.77;48.72;100484.88;4998730;28;20030;-60
2021/10/31 08:00:52;;;;;;;16.58;11.40;;;;;;;14.18;48.99;100477.63;4999604;28;20022;-59
2021/10/31 08:03:41;;;;;;;13.15;10.48;;;;;;;13.91;49.62;100469.53;5000464;28;20034;-60
2021/10/31 08:06:27;;;;;;;16.05;10.52;;;;;;;13.54;50.97;100485.97;5000423;28;20178;-60
2021/10/31 08:09:13;;;;;;;16.92;11.27;;;;;;;13.32;51.53;100484.66;5000364;28;20038;-60
2021/10/31 08:11:59;;;;;;;17.10;11.48;;;;;;;13.21;51.40;100496.13;5000480;28;20037;-59
2021/10/31 08:14:45;;;;;;;15.05;11.05;;;;;;;12.94;52.00;100485.34;5001828;28;20053;-58
2021/10/31 08:17:31;;;;;;;14.95;11.32;;;;;;;12.64;52.82;100509.25;4999804;28;20073;-59
2021/10/31 08:20:17;;;;;;;16.13;10.75;;;;;;;12.51;53.10;100493.91;4999425;28;20038;-60
2021/10/31 08:23:04;;;;;;;12.80;10.90;;;;;;;12.10;53.69;100508.38;4999980;28;20040;-60
2021/10/31 08:25:50;;;;;;;13.65;11.45;;;;;;;12.32;53.59;100505.44;5000391;28;20037;-59
2021/10/31 08:28:39;;;;;;;15.60;12.43;;;;;;;12.01;54.28;100506.75;4984436;28;20093;-59
2021/10/31 08:31:27;;;;;;;16.55;11.25;;;;;;;12.02;55.64;100521.44;4995363;28;20029;-60
2021/10/31 08:34:13;;;;;;;14.85;11.32;;;;;;;12.05;54.30;100517.94;5000491;28;20088;-58
2021/10/31 08:37:00;;;;;;;15.68;11.68;;;;;;;12.36;54.79;100523.56;5000374;28;20025;-59
2021/10/31 08:39:46;;;;;;;18.60;12.07;;;;;;;12.35;54.12;100516.63;4986699;28;20042;-61
2021/10/31 08:42:33;;;;;;;17.45;12.10;;;;;;;12.22;55.23;100520.31;4999663;28;20038;-59
2021/10/31 08:45:19;;;;;;;15.50;11.68;;;;;;;11.93;55.43;100521.56;5000241;28;20018;-58
2021/10/31 08:48:05;;;;;;;15.77;12.13;;;;;;;12.19;55.74;100533.34;5000797;28;20045;-60
2021/10/31 08:50:51;;;;;;;16.02;12.52;;;;;;;12.58;55.00;100531.88;5000009;28;20037;-59
2021/10/31 08:53:38;;;;;;;15.30;11.93;;;;;;;12.03;55.34;100527.50;5000122;28;20049;-60
2021/10/31 08:56:28;;;;;;;15.23;11.88;;;;;;;12.40;55.72;100529.56;4997629;28;20034;-58
2021/10/31 08:59:14;;;;;;;19.92;12.27;;;;;;;12.70;54.39;100530.81;5001806;28;20022;-60
2021/10/31 09:02:00;;;;;;;15.48;11.85;;;;;;;12.53;54.46;100531.09;4999188;28;20059;-59
2021/10/31 09:04:46;;;;;;;14.70;11.70;;;;;;;12.35;55.56;100526.19;5008429;28;20030;-59
2021/10/31 09:07:32;;;;;;;18.15;12.68;;;;;;;12.09;55.08;100527.41;5000867;28;20032;-60
2021/10/31 09:10:18;;;;;;;14.18;11.75;;;;;;;12.21;55.78;100523.78;4999684;28;20049;-58
2021/10/31 09:13:05;;;;;;;15.93;12.27;;;;;;;12.14;55.57;100522.16;5001099;28;20026;-59
2021/10/31 09:15:51;;;;;;;16.20;12.38;;;;;;;11.95;56.35;100518.97;4998828;28;20027;-59
2021/10/31 09:18:37;;;;;;;14.75;11.63;;;;;;;11.67;57.08;100514.97;5000248;28;20251;-59
2021/10/31 09:21:28;;;;;;;16.48;11.82;;;;;;;11.57;57.42;100510.75;5004397;28;20030;-58
2021/10/31 09:24:14;;;;;;;18.88;12.63;;;;;;;11.28;58.09;100513.69;5003197;28;20068;-59
2021/10/31 09:27:00;;;;;;;14.15;11.38;;;;;;;11.04;58.88;100521.72;5003841;28;20029;-59
2021/10/31 09:29:47;;;;;;;18.20;12.73;;;;;;;10.84;59.54;100521.88;5006644;28;20069;-59
2021/10/31 09:32:36;;;;;;;18.20;12.18;;;;;;;10.87;59.88;100527.06;5001976;28;20208;-59
2021/10/31 09:35:26;;;;;;;18.42;12.82;;;;;;;10.72;59.30;100503.88;5003350;28;20034;-59
2021/10/31 09:38:13;;;;;;;19.05;12.25;;;;;;;10.78;59.98;100527.13;5003575;28;20394;-58
2021/10/31 09:41:00;;;;;;;16.92;12.55;;;;;;;10.31;60.57;100521.41;5002569;28;20081;-59
2021/10/31 09:43:51;;;;;;;18.20;12.65;;;;;;;10.35;61.34;100517.97;5002835;28;20026;-58
2021/10/31 09:46:38;;;;;;;17.60;11.52;;;;;;;10.07;61.42;100462.03;5004362;28;20034;-59
2021/10/31 09:49:24;;;;;;;18.27;11.65;;;;;;;10.27;61.79;100518.84;5002878;28;20327;-58
2021/10/31 09:52:10;;;;;;;15.20;11.18;;;;;;;10.32;61.74;100525.72;5002748;28;20030;-58
2021/10/31 09:54:56;;;;;;;18.48;12.95;;;;;;;10.25;61.17;100520.59;5002248;28;20110;-58
2021/10/31 09:57:43;;;;;;;16.17;12.10;;;;;;;10.35;61.30;100517.09;5003554;28;20046;-59
2021/10/31 10:00:39;;;;;;;19.90;12.30;;;;;;;10.17;61.76;100495.59;5001972;28;20085;-59
2021/10/31 10:06:28;;;;;;;19.77;11.77;;;;;;;10.24;61.85;100521.47;5002387;28;20026;-60
2021/10/31 10:09:14;;;;;;;19.15;12.30;;;;;;;10.15;61.79;100504.28;5003282;28;20511;-59
2021/10/31 10:12:14;;;;;;;17.35;13.07;;;;;;;10.12;61.64;100512.91;4998882;28;20029;-59
2021/10/31 10:15:07;;;;;;;19.58;12.68;;;;;;;10.12;61.70;100507.72;5000978;28;20030;-61
2021/10/31 10:17:53;;;;;;;19.50;12.55;;;;;;;9.93;62.64;100509.56;5002307;28;20133;-59
2021/10/31 10:20:39;;;;;;;20.58;12.05;;;;;;;10.01;62.48;100505.19;5001569;28;20030;-60
2021/10/31 10:23:25;;;;;;;17.35;11.57;;;;;;;9.90;62.23;100506.13;5000750;28;20062;-61
2021/10/31 10:26:11;;;;;;;16.75;11.75;;;;;;;10.00;62.04;100500.91;5001579;28;20215;-60
2021/10/31 10:29:17;;;;;;;22.52;12.55;;;;;;;9.55;62.11;100433.03;5000131;28;20033;-60
2021/10/31 10:32:06;;;;;;;17.95;12.45;;;;;;;10.00;62.18;100482.78;4998908;28;20023;-60
2021/10/31 10:34:58;;;;;;;21.05;12.25;;;;;;;9.93;61.63;100467.28;5001178;28;20022;-61
2021/10/31 10:37:44;;;;;;;14.33;11.00;;;;;;;9.91;62.55;100471.63;5001772;28;20026;-60
2021/10/31 10:40:30;;;;;;;17.05;11.23;;;;;;;9.95;61.51;100473.34;5002059;28;20543;-60
2021/10/31 10:43:16;;;;;;;19.55;12.27;;;;;;;9.80;62.15;100469.94;5002265;28;20346;-59
2021/10/31 10:46:10;;;;;;;17.35;11.88;;;;;;;10.02;61.76;100465.50;5003157;28;20034;-62
2021/10/31 10:48:56;;;;;;;16.45;10.52;;;;;;;10.01;62.17;100461.19;5001427;28;20030;-60
2021/10/31 10:51:44;;;;;;;22.83;11.60;;;;;;;9.88;62.19;100456.97;4999352;28;20089;-59
2021/10/31 10:54:30;;;;;;;16.70;10.60;;;;;;;9.67;62.34;100456.22;4984846;28;20022;-60
2021/10/31 10:57:16;;;;;;;21.35;10.15;;;;;;;9.59;62.94;100460.59;5002454;28;20027;-61
2021/10/31 11:00:07;;;;;;;16.65;10.18;;;;;;;9.55;63.18;100451.13;4989082;28;20026;-62
2021/10/31 11:03:10;;;;;;;16.08;10.20;;;;;;;9.79;61.87;100441.50;4988485;28;20211;-61
2021/10/31 11:06:00;;;;;;;;;;;;;;;9.76;61.96;100434.66;4992852;28;20028;-60
2021/10/31 11:08:46;;;;;;;13.43;9.45;;;;;;;9.80;62.32;100444.06;4998411;28;19932;-59
2021/10/31 11:11:32;;;;;;;14.13;9.50;;;;;;;9.65;62.29;100439.88;4991666;28;20031;-60
2021/10/31 11:14:19;;;;;;;13.68;9.82;;;;;;;9.66;61.40;100432.97;4992879;28;20382;-61
2021/10/31 11:17:05;;;;;;;12.27;9.63;;;;;;;9.68;62.19;100429.50;4993707;28;20105;-60
2021/10/31 11:19:53;;;;;;;14.00;9.90;;;;;;;9.32;61.58;100371.97;5019899;28;20029;-61
2021/10/31 11:22:46;;;;;;;13.23;9.43;;;;;;;9.62;62.07;100439.88;5009876;28;20231;-60
2021/10/31 11:25:33;;;;;;;;;;;;;;;9.65;62.20;100431.25;5001526;28;20034;-60
2021/10/31 11:28:20;;;;;;;10.95;8.85;;;;;;;9.67;62.13;100426.94;5001808;28;19918;-60
2021/10/31 11:31:07;;;;;;;13.70;9.57;;;;;;;9.87;62.17;100418.19;4989410;28;20077;-60
2021/10/31 11:33:53;;;;;;;13.77;9.38;;;;;;;9.97;61.59;100427.59;4997672;28;20036;-59
2021/10/31 11:36:39;;;;;;;11.82;8.63;;;;;;;9.89;61.01;100432.84;5001319;28;20034;-60
2021/10/31 11:39:25;;;;;;;20.20;9.40;;;;;;;9.71;61.52;100420.03;5002285;28;20030;-60
2021/10/31 11:42:12;;;;;;;11.43;9.05;;;;;;;9.92;61.67;100421.59;5001372;28;20026;-60
2021/10/31 11:44:59;;;;;;;15.43;9.13;;;;;;;9.95;61.66;100425.03;5001661;28;20018;-61
2021/10/31 11:48:07;;;;;;;14.02;8.93;;;;;;;9.90;61.27;100426.78;5001440;28;20033;-60
2021/10/31 11:50:59;;;;;;;14.05;8.95;;;;;;;9.74;61.75;100427.75;5002162;28;20034;-60
2021/10/31 11:53:48;;;;;;;;;;;;;;;9.65;61.95;100418.31;5002371;28;20034;-60
2021/10/31 11:56:50;;;;;;;14.60;9.73;;;;;;;9.61;62.23;100420.06;4987008;28;20233;-62
2021/10/31 11:59:36;;;;;;;12.30;9.27;;;;;;;9.66;62.00;100418.31;4986535;28;20038;-59
2021/10/31 12:02:36;;;;;;;11.57;9.35;;;;;;;9.57;61.20;100414.91;5001148;28;20038;-61
2021/10/31 12:05:39;;;;;;;11.63;8.85;;;;;;;9.70;61.41;100406.22;5009606;28;20308;-61
2021/10/31 12:08:48;;;;;;;14.40;9.18;;;;;;;9.64;61.76;100421.78;5001878;28;20101;-61
2021/10/31 12:11:34;;;;;;;13.20;9.35;;;;;;;9.63;61.27;100405.41;5000930;28;20061;-60
2021/10/31 12:14:42;;;;;;;15.48;9.13;;;;;;;9.74;61.39;100391.53;5000848;28;20050;-60
2021/10/31 12:18:02;;;;;;;16.83;8.70;;;;;;;9.64;61.58;100370.06;4998604;28;20037;-60
2021/10/31 12:20:53;;;;;;;12.63;9.30;;;;;;;9.90;61.05;100387.13;4997782;28;20106;-60
2021/10/31 12:23:59;;;;;;;13.52;9.75;;;;;;;9.56;61.19;100330.44;5001364;28;20046;-60
2021/10/31 12:26:47;;;;;;;15.48;10.10;;;;;;;9.93;61.19;100387.09;5000745;28;20026;-60
2021/10/31 12:29:33;;;;;;;11.63;9.02;;;;;;;10.00;61.41;100391.34;5000469;28;20038;-61
2021/10/31 12:32:20;;;;;;;14.98;10.35;;;;;;;10.15;59.97;100388.63;5000805;28;20034;-60
2021/10/31 12:35:37;;;;;;;13.25;9.38;;;;;;;10.29;60.12;100387.66;5000683;28;20027;-60
2021/10/31 12:38:22;;;;;;;13.38;9.60;;;;;;;10.32;60.16;100391.09;4994689;28;20223;-61
2021/10/31 12:41:11;;;;;;;13.82;10.10;;;;;;;10.27;59.56;100389.41;5002291;28;20038;-61
2021/10/31 12:44:14;;;;;;;13.55;9.93;;;;;;;10.16;60.59;100379.13;5000214;28;20057;-61
2021/10/31 12:47:10;;;;;;;14.13;9.88;;;;;;;9.80;60.49;100352.69;5001358;28;20042;-62
2021/10/31 12:50:11;;;;;;;14.77;9.18;;;;;;;10.07;60.24;100399.94;5000346;28;20033;-60
2021/10/31 12:53:01;;;;;;;13.18;10.30;;;;;;;9.84;61.26;100362.16;4999712;28;20223;-59
2021/10/31 12:55:51;;;;;;;14.25;10.10;;;;;;;9.80;60.95;100371.66;5000233;28;20028;-61
2021/10/31 12:58:37;;;;;;;16.38;10.30;;;;;;;9.62;61.97;100372.66;5000420;28;20121;-61
2021/10/31 13:01:23;;;;;;;14.63;10.35;;;;;;;9.77;61.21;100381.16;5000069;28;20110;-60